EZ149 FACT-FAGG
Flight info
| Callsign | EZ149 |
|---|---|
| Flight time | 1h 2m |
| Altitude | 27000 |
| Route | OKTED1C OKTED UQ12 XUGOL UQ56 AXEMU |
| Aircraft | B738/M-SDE2E3FGHIRWXY/LB1 |
Departure
| Time | 2026-05-07 18:22 |
|---|---|
| Airport | Cape Town International Airport (FACT) |
Arrival
| Time | 2026-05-07 19:24 |
|---|---|
| Airport | George Airport (FAGG) |
| Time | Latitude | Longitude | Altitude | Speed | Heading |
|---|---|---|---|---|---|
| 2026-05-07 17:11 | -33.96612 | 18.59901 | 154 ft | 0 kts | 76° |
| 2026-05-07 17:59 | -33.96612 | 18.59902 | 154 ft | 0 kts | 76° |
| 2026-05-07 18:15 | -33.96607 | 18.59923 | 154 ft | 0 kts | 71° |
| 2026-05-07 18:15 | -33.96604 | 18.59926 | 154 ft | 3 kts | 47° |
| 2026-05-07 18:15 | -33.96565 | 18.59928 | 154 ft | 7 kts | 338° |
| 2026-05-07 18:16 | -33.96542 | 18.59882 | 154 ft | 7 kts | 271° |
| 2026-05-07 18:16 | -33.96552 | 18.59828 | 154 ft | 6 kts | 269° |
| 2026-05-07 18:16 | -33.96516 | 18.59783 | 153 ft | 9 kts | 341° |
| 2026-05-07 18:16 | -33.96437 | 18.59763 | 153 ft | 12 kts | 349° |
| 2026-05-07 18:17 | -33.96328 | 18.59739 | 152 ft | 17 kts | 348° |
| 2026-05-07 18:17 | -33.96286 | 18.59728 | 152 ft | 0 kts | 349° |
| 2026-05-07 18:17 | -33.96285 | 18.59728 | 152 ft | 0 kts | 349° |
| 2026-05-07 18:18 | -33.96248 | 18.59726 | 152 ft | 11 kts | 8° |
| 2026-05-07 18:18 | -33.96151 | 18.59806 | 151 ft | 23 kts | 43° |
| 2026-05-07 18:18 | -33.96089 | 18.59880 | 153 ft | 1 kts | 46° |
| 2026-05-07 18:19 | -33.96086 | 18.59885 | 153 ft | 1 kts | 46° |
| 2026-05-07 18:19 | -33.96083 | 18.59888 | 154 ft | 1 kts | 46° |
| 2026-05-07 18:19 | -33.96080 | 18.59892 | 154 ft | 1 kts | 46° |
| 2026-05-07 18:19 | -33.96077 | 18.59896 | 154 ft | 1 kts | 46° |
| 2026-05-07 18:20 | -33.96071 | 18.59904 | 154 ft | 3 kts | 48° |
| 2026-05-07 18:20 | -33.96039 | 18.59971 | 154 ft | 16 kts | 86° |
| 2026-05-07 18:20 | -33.96131 | 18.60053 | 154 ft | 14 kts | 167° |
| 2026-05-07 18:20 | -33.96140 | 18.60055 | 154 ft | 0 kts | 165° |
| 2026-05-07 18:21 | -33.96140 | 18.60056 | 154 ft | 0 kts | 165° |
| 2026-05-07 18:21 | -33.96141 | 18.60056 | 154 ft | 2 kts | 165° |
| 2026-05-07 18:21 | -33.96461 | 18.60158 | 156 ft | 97 kts | 165° |
| 2026-05-07 18:21 | -33.97401 | 18.60450 | 226 ft | 175 kts | 165° |
| 2026-05-07 18:22 | -33.98612 | 18.60706 | 1363 ft | 157 kts | 177° |
| 2026-05-07 18:22 | -33.99238 | 18.60696 | 2557 ft | 125 kts | 180° |
| 2026-05-07 18:22 | -34.00727 | 18.61254 | 2213 ft | 232 kts | 157° |
| 2026-05-07 18:22 | -34.02243 | 18.61931 | 2993 ft | 221 kts | 162° |
| 2026-05-07 18:23 | -34.03686 | 18.62480 | 3693 ft | 228 kts | 163° |
| 2026-05-07 18:23 | -34.05261 | 18.63050 | 4134 ft | 242 kts | 163° |
| 2026-05-07 18:23 | -34.06935 | 18.63660 | 4397 ft | 264 kts | 163° |
| 2026-05-07 18:23 | -34.08704 | 18.64300 | 4371 ft | 267 kts | 163° |
| 2026-05-07 18:24 | -34.10484 | 18.64941 | 4421 ft | 268 kts | 163° |
| 2026-05-07 18:24 | -34.12294 | 18.65591 | 4881 ft | 274 kts | 164° |
| 2026-05-07 18:24 | -34.14109 | 18.66241 | 5938 ft | 271 kts | 164° |
| 2026-05-07 18:24 | -34.15922 | 18.66890 | 6875 ft | 273 kts | 164° |
| 2026-05-07 18:25 | -34.17734 | 18.67538 | 7730 ft | 277 kts | 164° |
| 2026-05-07 18:25 | -34.19595 | 18.68204 | 8586 ft | 281 kts | 164° |
| 2026-05-07 18:25 | -34.21481 | 18.68879 | 9431 ft | 285 kts | 164° |
| 2026-05-07 18:25 | -34.23394 | 18.69563 | 10253 ft | 289 kts | 164° |
| 2026-05-07 18:26 | -34.25390 | 18.70277 | 10600 ft | 312 kts | 164° |
| 2026-05-07 18:26 | -34.27552 | 18.71051 | 10802 ft | 337 kts | 163° |
| 2026-05-07 18:26 | -34.29852 | 18.71918 | 11164 ft | 354 kts | 158° |
| 2026-05-07 18:26 | -34.31908 | 18.73584 | 11729 ft | 361 kts | 134° |
| 2026-05-07 18:27 | -34.33280 | 18.76070 | 11983 ft | 364 kts | 111° |
| 2026-05-07 18:27 | -34.33722 | 18.79065 | 12016 ft | 364 kts | 88° |
| 2026-05-07 18:27 | -34.33257 | 18.82069 | 12018 ft | 364 kts | 73° |
| 2026-05-07 18:27 | -34.32514 | 18.84997 | 12011 ft | 365 kts | 72° |
| 2026-05-07 18:28 | -34.31774 | 18.87931 | 12003 ft | 365 kts | 73° |
| 2026-05-07 18:28 | -34.31055 | 18.90877 | 12000 ft | 366 kts | 74° |
| 2026-05-07 18:28 | -34.30494 | 18.93881 | 12009 ft | 366 kts | 79° |
| 2026-05-07 18:28 | -34.30078 | 18.96919 | 11997 ft | 366 kts | 81° |
| 2026-05-07 18:29 | -34.29702 | 18.99969 | 12004 ft | 366 kts | 81° |
| 2026-05-07 18:29 | -34.29331 | 19.02968 | 12002 ft | 366 kts | 81° |
| 2026-05-07 18:29 | -34.28943 | 19.06009 | 12011 ft | 366 kts | 81° |
| 2026-05-07 18:29 | -34.28542 | 19.09052 | 12003 ft | 366 kts | 81° |
| 2026-05-07 18:30 | -34.28131 | 19.12095 | 12005 ft | 366 kts | 81° |
| 2026-05-07 18:30 | -34.27715 | 19.15130 | 12006 ft | 366 kts | 80° |
| 2026-05-07 18:30 | -34.27295 | 19.18164 | 12011 ft | 366 kts | 80° |
| 2026-05-07 18:30 | -34.26874 | 19.21194 | 12010 ft | 366 kts | 80° |
| 2026-05-07 18:31 | -34.26452 | 19.24219 | 12008 ft | 365 kts | 80° |
| 2026-05-07 18:31 | -34.26025 | 19.27275 | 12225 ft | 372 kts | 80° |
| 2026-05-07 18:31 | -34.25599 | 19.30317 | 13024 ft | 371 kts | 80° |
| 2026-05-07 18:31 | -34.25166 | 19.33396 | 13802 ft | 373 kts | 80° |
| 2026-05-07 18:32 | -34.24730 | 19.36498 | 14470 ft | 377 kts | 80° |
| 2026-05-07 18:32 | -34.24288 | 19.39638 | 15097 ft | 381 kts | 80° |
| 2026-05-07 18:32 | -34.23840 | 19.42814 | 15738 ft | 385 kts | 80° |
| 2026-05-07 18:32 | -34.23387 | 19.46019 | 16365 ft | 389 kts | 80° |
| 2026-05-07 18:33 | -34.22929 | 19.49258 | 16966 ft | 392 kts | 80° |
| 2026-05-07 18:33 | -34.22466 | 19.52523 | 17553 ft | 396 kts | 80° |
| 2026-05-07 18:33 | -34.22002 | 19.55813 | 18128 ft | 399 kts | 81° |
| 2026-05-07 18:33 | -34.21661 | 19.59160 | 18678 ft | 403 kts | 84° |
| 2026-05-07 18:34 | -34.21432 | 19.62499 | 19208 ft | 406 kts | 86° |
| 2026-05-07 18:34 | -34.21233 | 19.65914 | 19754 ft | 409 kts | 86° |
| 2026-05-07 18:34 | -34.21035 | 19.69351 | 20274 ft | 412 kts | 86° |
| 2026-05-07 18:34 | -34.20825 | 19.72815 | 20770 ft | 415 kts | 85° |
| 2026-05-07 18:35 | -34.20601 | 19.76307 | 21243 ft | 419 kts | 85° |
| 2026-05-07 18:35 | -34.20367 | 19.79825 | 21711 ft | 422 kts | 85° |
| 2026-05-07 18:35 | -34.20125 | 19.83370 | 22162 ft | 425 kts | 85° |
| 2026-05-07 18:35 | -34.19877 | 19.86938 | 22518 ft | 430 kts | 85° |
| 2026-05-07 18:36 | -34.19628 | 19.90508 | 22889 ft | 434 kts | 85° |
| 2026-05-07 18:36 | -34.19373 | 19.94153 | 23002 ft | 440 kts | 85° |
| 2026-05-07 18:36 | -34.19111 | 19.97875 | 23013 ft | 449 kts | 85° |
| 2026-05-07 18:36 | -34.18845 | 20.01643 | 23007 ft | 451 kts | 85° |
| 2026-05-07 18:37 | -34.18578 | 20.05409 | 22997 ft | 448 kts | 85° |
| 2026-05-07 18:37 | -34.18313 | 20.09145 | 22999 ft | 445 kts | 85° |
| 2026-05-07 18:37 | -34.18048 | 20.12866 | 23001 ft | 443 kts | 85° |
| 2026-05-07 18:37 | -34.17782 | 20.16569 | 23005 ft | 443 kts | 85° |
| 2026-05-07 18:38 | -34.17567 | 20.20280 | 23007 ft | 443 kts | 89° |
| 2026-05-07 18:38 | -34.17590 | 20.23954 | 23010 ft | 444 kts | 91° |
| 2026-05-07 18:38 | -34.17701 | 20.27690 | 23014 ft | 446 kts | 92° |
| 2026-05-07 18:38 | -34.17839 | 20.31438 | 23011 ft | 447 kts | 92° |
| 2026-05-07 18:39 | -34.17975 | 20.35191 | 23011 ft | 448 kts | 92° |
| 2026-05-07 18:39 | -34.18101 | 20.38951 | 23009 ft | 448 kts | 92° |
| 2026-05-07 18:39 | -34.18213 | 20.42711 | 23010 ft | 448 kts | 92° |
| 2026-05-07 18:39 | -34.18316 | 20.46476 | 23003 ft | 448 kts | 92° |
| 2026-05-07 18:40 | -34.18410 | 20.50183 | 23006 ft | 448 kts | 91° |
| 2026-05-07 18:40 | -34.18502 | 20.53940 | 23006 ft | 447 kts | 91° |
| 2026-05-07 18:40 | -34.18592 | 20.57696 | 23004 ft | 447 kts | 91° |
| 2026-05-07 18:40 | -34.18681 | 20.61441 | 23006 ft | 446 kts | 91° |
| 2026-05-07 18:41 | -34.18769 | 20.65185 | 23008 ft | 446 kts | 91° |
| 2026-05-07 18:41 | -34.18856 | 20.68928 | 23008 ft | 446 kts | 91° |
| 2026-05-07 18:41 | -34.18942 | 20.72666 | 23009 ft | 446 kts | 91° |
| 2026-05-07 18:41 | -34.19027 | 20.76409 | 23008 ft | 446 kts | 91° |
| 2026-05-07 18:42 | -34.19111 | 20.80154 | 23007 ft | 446 kts | 91° |
| 2026-05-07 18:42 | -34.19193 | 20.83854 | 23008 ft | 446 kts | 91° |
| 2026-05-07 18:42 | -34.19275 | 20.87597 | 23010 ft | 446 kts | 91° |
| 2026-05-07 18:42 | -34.19355 | 20.91342 | 23004 ft | 446 kts | 91° |
| 2026-05-07 18:43 | -34.19434 | 20.95042 | 22994 ft | 434 kts | 91° |
| 2026-05-07 18:43 | -34.19509 | 20.98651 | 22997 ft | 427 kts | 91° |
| 2026-05-07 18:43 | -34.19583 | 21.02237 | 23009 ft | 427 kts | 91° |
| 2026-05-07 18:43 | -34.19656 | 21.05829 | 23015 ft | 429 kts | 91° |
| 2026-05-07 18:44 | -34.19729 | 21.09442 | 22607 ft | 430 kts | 91° |
| 2026-05-07 18:44 | -34.19800 | 21.13027 | 22076 ft | 425 kts | 91° |
| 2026-05-07 18:44 | -34.19868 | 21.16522 | 21519 ft | 419 kts | 91° |
| 2026-05-07 18:44 | -34.19935 | 21.20020 | 20965 ft | 415 kts | 91° |
| 2026-05-07 18:45 | -34.19999 | 21.23438 | 20818 ft | 400 kts | 91° |
| 2026-05-07 18:45 | -34.20061 | 21.26741 | 20635 ft | 387 kts | 91° |
| 2026-05-07 18:45 | -34.20120 | 21.29940 | 20470 ft | 375 kts | 91° |
| 2026-05-07 18:45 | -34.20177 | 21.33048 | 20315 ft | 364 kts | 91° |
| 2026-05-07 18:46 | -34.20231 | 21.36063 | 20161 ft | 354 kts | 91° |
| 2026-05-07 18:46 | -34.20282 | 21.38993 | 20039 ft | 344 kts | 90° |
| 2026-05-07 18:46 | -34.20062 | 21.41818 | 20009 ft | 333 kts | 78° |
| 2026-05-07 18:46 | -34.19552 | 21.44461 | 20000 ft | 323 kts | 76° |
| 2026-05-07 18:47 | -34.19007 | 21.47046 | 19990 ft | 311 kts | 75° |
| 2026-05-07 18:47 | -34.18484 | 21.49518 | 19985 ft | 298 kts | 76° |
| 2026-05-07 18:47 | -34.17991 | 21.51894 | 19986 ft | 285 kts | 76° |
| 2026-05-07 18:47 | -34.17525 | 21.54173 | 19988 ft | 274 kts | 76° |
| 2026-05-07 18:48 | -34.17081 | 21.56373 | 19989 ft | 268 kts | 76° |
| 2026-05-07 18:48 | -34.16637 | 21.58587 | 20013 ft | 276 kts | 76° |
| 2026-05-07 18:48 | -34.16182 | 21.60868 | 20021 ft | 283 kts | 76° |
| 2026-05-07 18:48 | -34.15726 | 21.63156 | 20018 ft | 283 kts | 76° |
| 2026-05-07 18:49 | -34.15268 | 21.65456 | 20006 ft | 281 kts | 76° |
| 2026-05-07 18:49 | -34.14813 | 21.67741 | 20000 ft | 279 kts | 76° |
| 2026-05-07 18:49 | -34.14362 | 21.70011 | 20001 ft | 277 kts | 76° |
| 2026-05-07 18:49 | -34.13912 | 21.72269 | 20000 ft | 276 kts | 76° |
| 2026-05-07 18:50 | -34.13464 | 21.74516 | 20006 ft | 275 kts | 76° |
| 2026-05-07 18:50 | -34.13016 | 21.76761 | 20008 ft | 275 kts | 76° |
| 2026-05-07 18:50 | -34.12566 | 21.79009 | 20008 ft | 276 kts | 76° |
| 2026-05-07 18:50 | -34.12107 | 21.81268 | 20013 ft | 277 kts | 76° |
| 2026-05-07 18:51 | -34.11649 | 21.83499 | 20016 ft | 279 kts | 76° |
| 2026-05-07 18:51 | -34.11179 | 21.85780 | 20018 ft | 280 kts | 76° |
| 2026-05-07 18:51 | -34.10712 | 21.88047 | 19908 ft | 278 kts | 76° |
| 2026-05-07 18:51 | -34.10247 | 21.90303 | 19648 ft | 277 kts | 76° |
| 2026-05-07 18:52 | -34.09790 | 21.92519 | 19556 ft | 265 kts | 76° |
| 2026-05-07 18:52 | -34.09356 | 21.94621 | 19488 ft | 251 kts | 76° |
| 2026-05-07 18:52 | -34.08948 | 21.96601 | 19404 ft | 236 kts | 76° |
| 2026-05-07 18:52 | -34.08562 | 21.98468 | 19251 ft | 225 kts | 76° |
| 2026-05-07 18:53 | -34.08185 | 22.00289 | 18908 ft | 223 kts | 76° |
| 2026-05-07 18:53 | -34.07813 | 22.02093 | 18551 ft | 220 kts | 76° |
| 2026-05-07 18:53 | -34.07448 | 22.03856 | 18158 ft | 220 kts | 76° |
| 2026-05-07 18:53 | -34.07077 | 22.05642 | 17776 ft | 219 kts | 76° |
| 2026-05-07 18:54 | -34.06708 | 22.07421 | 17396 ft | 218 kts | 76° |
| 2026-05-07 18:54 | -34.06342 | 22.09187 | 17020 ft | 217 kts | 76° |
| 2026-05-07 18:54 | -34.05977 | 22.10945 | 16644 ft | 215 kts | 76° |
| 2026-05-07 18:54 | -34.05614 | 22.12687 | 16268 ft | 214 kts | 75° |
| 2026-05-07 18:55 | -34.05070 | 22.14319 | 15872 ft | 212 kts | 71° |
| 2026-05-07 18:55 | -34.05088 | 22.16057 | 15416 ft | 212 kts | 115° |
| 2026-05-07 18:55 | -34.06056 | 22.17276 | 14993 ft | 208 kts | 158° |
| 2026-05-07 18:55 | -34.07457 | 22.17543 | 14590 ft | 205 kts | 192° |
| 2026-05-07 18:56 | -34.08828 | 22.17086 | 14205 ft | 204 kts | 192° |
| 2026-05-07 18:56 | -34.10221 | 22.16766 | 13821 ft | 204 kts | 191° |
| 2026-05-07 18:56 | -34.11609 | 22.16445 | 13454 ft | 202 kts | 191° |
| 2026-05-07 18:56 | -34.12977 | 22.16076 | 13085 ft | 201 kts | 204° |
| 2026-05-07 18:57 | -34.13970 | 22.14953 | 12671 ft | 198 kts | 242° |
| 2026-05-07 18:57 | -34.14610 | 22.13488 | 12323 ft | 197 kts | 242° |
| 2026-05-07 18:57 | -34.15134 | 22.11997 | 11928 ft | 197 kts | 264° |
| 2026-05-07 18:57 | -34.14780 | 22.10454 | 11519 ft | 195 kts | 311° |
| 2026-05-07 18:58 | -34.13614 | 22.09711 | 11126 ft | 195 kts | 355° |
| 2026-05-07 18:58 | -34.12262 | 22.09695 | 10779 ft | 194 kts | 358° |
| 2026-05-07 18:58 | -34.10915 | 22.09663 | 10435 ft | 193 kts | 358° |
| 2026-05-07 18:58 | -34.09570 | 22.09630 | 10105 ft | 193 kts | 358° |
| 2026-05-07 18:59 | -34.08235 | 22.09596 | 9775 ft | 192 kts | 358° |
| 2026-05-07 18:59 | -34.06904 | 22.09600 | 9443 ft | 191 kts | 4° |
| 2026-05-07 18:59 | -34.05599 | 22.09900 | 9093 ft | 191 kts | 17° |
| 2026-05-07 18:59 | -34.04404 | 22.10546 | 8769 ft | 191 kts | 32° |
| 2026-05-07 19:00 | -34.03396 | 22.11573 | 8449 ft | 189 kts | 49° |
| 2026-05-07 19:00 | -34.02679 | 22.12814 | 8375 ft | 173 kts | 61° |
| 2026-05-07 19:00 | -34.02175 | 22.14153 | 7981 ft | 179 kts | 70° |
| 2026-05-07 19:00 | -34.01762 | 22.15588 | 7598 ft | 184 kts | 73° |
| 2026-05-07 19:01 | -34.01475 | 22.17098 | 7246 ft | 186 kts | 81° |
| 2026-05-07 19:01 | -34.01268 | 22.18646 | 6912 ft | 186 kts | 82° |
| 2026-05-07 19:01 | -34.01141 | 22.20173 | 6585 ft | 181 kts | 86° |
| 2026-05-07 19:01 | -34.01077 | 22.21675 | 6259 ft | 178 kts | 88° |
| 2026-05-07 19:02 | -34.01028 | 22.23135 | 5895 ft | 175 kts | 88° |
| 2026-05-07 19:02 | -34.00981 | 22.24594 | 5531 ft | 174 kts | 88° |
| 2026-05-07 19:02 | -34.00928 | 22.26176 | 4435 ft | 210 kts | 88° |
| 2026-05-07 19:02 | -34.00869 | 22.27997 | 3581 ft | 221 kts | 88° |
| 2026-05-07 19:03 | -34.00809 | 22.29864 | 2766 ft | 225 kts | 88° |
| 2026-05-07 19:03 | -34.00768 | 22.31120 | 2253 ft | 227 kts | 88° |
| 2026-05-07 19:03 | -34.00700 | 22.33247 | 1435 ft | 224 kts | 88° |
| 2026-05-07 19:03 | -34.00643 | 22.35019 | 1231 ft | 200 kts | 88° |
| 2026-05-07 19:04 | -34.00593 | 22.36613 | 1010 ft | 182 kts | 88° |
| 2026-05-07 19:04 | -34.00543 | 22.38178 | 926 ft | 210 kts | 88° |
| 2026-05-07 19:04 | -34.00483 | 22.40101 | 856 ft | 252 kts | 88° |
| 2026-05-07 19:04 | -34.00419 | 22.42133 | 1869 ft | 226 kts | 88° |
| 2026-05-07 19:05 | -34.00374 | 22.43925 | 2975 ft | 216 kts | 88° |
| 2026-05-07 19:05 | -34.00320 | 22.45801 | 2752 ft | 230 kts | 87° |
| 2026-05-07 19:05 | -34.00232 | 22.47777 | 1997 ft | 234 kts | 86° |
| 2026-05-07 19:05 | -34.00151 | 22.49667 | 1808 ft | 221 kts | 89° |
| 2026-05-07 19:06 | -34.00011 | 22.51505 | 1410 ft | 225 kts | 66° |
| 2026-05-07 19:06 | -33.99149 | 22.52794 | 1191 ft | 218 kts | 37° |
| 2026-05-07 19:06 | -33.97911 | 22.53934 | 1516 ft | 238 kts | 37° |
| 2026-05-07 19:07 | -33.96673 | 22.55325 | 2624 ft | 252 kts | 56° |
| 2026-05-07 19:07 | -33.96192 | 22.57316 | 4059 ft | 253 kts | 92° |
| 2026-05-07 19:07 | -33.96695 | 22.59463 | 4746 ft | 286 kts | 124° |
| 2026-05-07 19:07 | -33.98060 | 22.61356 | 5359 ft | 316 kts | 134° |
| 2026-05-07 19:08 | -33.99585 | 22.63531 | 5345 ft | 360 kts | 128° |
| 2026-05-07 19:08 | -34.01379 | 22.65585 | 5251 ft | 350 kts | 150° |
| 2026-05-07 19:08 | -34.03600 | 22.66447 | 5220 ft | 325 kts | 177° |
| 2026-05-07 19:08 | -34.05720 | 22.65981 | 5215 ft | 301 kts | 207° |
| 2026-05-07 19:09 | -34.07289 | 22.64482 | 5229 ft | 279 kts | 227° |
| 2026-05-07 19:09 | -34.08498 | 22.62784 | 5212 ft | 262 kts | 232° |
| 2026-05-07 19:09 | -34.09217 | 22.60882 | 5219 ft | 243 kts | 261° |
| 2026-05-07 19:09 | -34.09410 | 22.58925 | 5213 ft | 228 kts | 264° |
| 2026-05-07 19:10 | -34.09573 | 22.57056 | 5216 ft | 223 kts | 264° |
| 2026-05-07 19:10 | -34.09731 | 22.55195 | 5226 ft | 223 kts | 264° |
| 2026-05-07 19:10 | -34.09889 | 22.53322 | 5235 ft | 225 kts | 264° |
| 2026-05-07 19:10 | -34.10046 | 22.51438 | 5236 ft | 226 kts | 264° |
| 2026-05-07 19:11 | -34.10203 | 22.49545 | 5235 ft | 227 kts | 264° |
| 2026-05-07 19:11 | -34.10359 | 22.47673 | 5235 ft | 227 kts | 264° |
| 2026-05-07 19:11 | -34.10516 | 22.45775 | 5232 ft | 227 kts | 264° |
| 2026-05-07 19:11 | -34.10673 | 22.43878 | 5228 ft | 227 kts | 264° |
| 2026-05-07 19:12 | -34.10829 | 22.41985 | 5223 ft | 226 kts | 264° |
| 2026-05-07 19:12 | -34.10984 | 22.40099 | 5224 ft | 225 kts | 264° |
| 2026-05-07 19:12 | -34.11139 | 22.38221 | 5224 ft | 225 kts | 264° |
| 2026-05-07 19:12 | -34.11292 | 22.36347 | 5225 ft | 224 kts | 264° |
| 2026-05-07 19:13 | -34.11446 | 22.34481 | 5226 ft | 223 kts | 264° |
| 2026-05-07 19:13 | -34.11599 | 22.32615 | 5226 ft | 223 kts | 264° |
| 2026-05-07 19:13 | -34.11751 | 22.30752 | 5226 ft | 223 kts | 264° |
| 2026-05-07 19:13 | -34.11903 | 22.28892 | 5228 ft | 223 kts | 264° |
| 2026-05-07 19:14 | -34.12053 | 22.27054 | 5227 ft | 223 kts | 264° |
| 2026-05-07 19:14 | -34.12204 | 22.25189 | 5228 ft | 224 kts | 264° |
| 2026-05-07 19:14 | -34.12357 | 22.23317 | 5228 ft | 224 kts | 264° |
| 2026-05-07 19:14 | -34.12509 | 22.21446 | 5228 ft | 224 kts | 264° |
| 2026-05-07 19:15 | -34.12660 | 22.19572 | 5227 ft | 225 kts | 264° |
| 2026-05-07 19:15 | -34.12812 | 22.17692 | 5227 ft | 225 kts | 264° |
| 2026-05-07 19:15 | -34.12964 | 22.15814 | 5227 ft | 225 kts | 264° |
| 2026-05-07 19:15 | -34.13116 | 22.13934 | 5228 ft | 225 kts | 264° |
| 2026-05-07 19:16 | -34.13265 | 22.12084 | 5220 ft | 222 kts | 264° |
| 2026-05-07 19:16 | -34.13396 | 22.10289 | 5226 ft | 207 kts | 270° |
| 2026-05-07 19:16 | -34.12931 | 22.08782 | 5223 ft | 189 kts | 317° |
| 2026-05-07 19:16 | -34.11760 | 22.08215 | 5243 ft | 186 kts | 359° |
| 2026-05-07 19:17 | -34.10442 | 22.08213 | 5240 ft | 191 kts | 358° |
| 2026-05-07 19:17 | -34.09135 | 22.08181 | 5300 ft | 185 kts | 358° |
| 2026-05-07 19:17 | -34.07859 | 22.08150 | 5257 ft | 181 kts | 359° |
| 2026-05-07 19:17 | -34.06608 | 22.08261 | 5187 ft | 180 kts | 9° |
| 2026-05-07 19:18 | -34.05402 | 22.08682 | 5106 ft | 182 kts | 22° |
| 2026-05-07 19:18 | -34.04288 | 22.09409 | 4976 ft | 183 kts | 36° |
| 2026-05-07 19:18 | -34.03377 | 22.10448 | 4815 ft | 183 kts | 50° |
| 2026-05-07 19:18 | -34.02681 | 22.11726 | 4610 ft | 182 kts | 62° |
| 2026-05-07 19:19 | -34.02183 | 22.13124 | 4390 ft | 181 kts | 71° |
| 2026-05-07 19:19 | -34.01792 | 22.14531 | 4168 ft | 173 kts | 74° |
| 2026-05-07 19:19 | -34.01542 | 22.15898 | 3941 ft | 161 kts | 81° |
| 2026-05-07 19:19 | -34.01365 | 22.17178 | 3749 ft | 152 kts | 81° |
| 2026-05-07 19:20 | -34.01232 | 22.18435 | 3561 ft | 152 kts | 84° |
| 2026-05-07 19:20 | -34.01154 | 22.19708 | 3356 ft | 152 kts | 86° |
| 2026-05-07 19:20 | -34.01102 | 22.20993 | 3159 ft | 155 kts | 87° |
| 2026-05-07 19:20 | -34.01057 | 22.22256 | 2933 ft | 149 kts | 88° |
| 2026-05-07 19:21 | -34.01025 | 22.23501 | 2757 ft | 150 kts | 88° |
| 2026-05-07 19:21 | -34.00980 | 22.24766 | 2554 ft | 152 kts | 87° |
| 2026-05-07 19:21 | -34.00931 | 22.26038 | 2355 ft | 153 kts | 88° |
| 2026-05-07 19:21 | -34.00891 | 22.27303 | 2150 ft | 148 kts | 88° |
| 2026-05-07 19:22 | -34.00852 | 22.28541 | 1948 ft | 147 kts | 88° |
| 2026-05-07 19:22 | -34.00811 | 22.29780 | 1762 ft | 149 kts | 88° |
| 2026-05-07 19:22 | -34.00771 | 22.31025 | 1574 ft | 149 kts | 88° |
| 2026-05-07 19:22 | -34.00731 | 22.32266 | 1361 ft | 147 kts | 88° |
| 2026-05-07 19:23 | -34.00693 | 22.33462 | 1200 ft | 145 kts | 88° |
| 2026-05-07 19:23 | -34.00654 | 22.34685 | 988 ft | 146 kts | 88° |
| 2026-05-07 19:23 | -34.00615 | 22.35897 | 793 ft | 141 kts | 88° |
| 2026-05-07 19:23 | -34.00578 | 22.37056 | 637 ft | 133 kts | 88° |
| 2026-05-07 19:24 | -34.00548 | 22.37980 | 645 ft | 54 kts | 88° |
| 2026-05-07 19:24 | -34.00545 | 22.38081 | 646 ft | 0 kts | 88° |
| 2026-05-07 19:24 | -34.00544 | 22.38112 | 646 ft | 7 kts | 88° |
| 2026-05-07 19:24 | -34.00541 | 22.38208 | 646 ft | 16 kts | 88° |
| 2026-05-07 19:25 | -34.00535 | 22.38392 | 648 ft | 31 kts | 88° |
| 2026-05-07 19:25 | -34.00524 | 22.38705 | 652 ft | 41 kts | 88° |
| 2026-05-07 19:25 | -34.00487 | 22.38911 | 656 ft | 22 kts | 31° |
| 2026-05-07 19:25 | -34.00346 | 22.38891 | 661 ft | 21 kts | 320° |
| 2026-05-07 19:26 | -34.00307 | 22.38731 | 654 ft | 20 kts | 271° |
| 2026-05-07 19:26 | -34.00314 | 22.38563 | 652 ft | 20 kts | 264° |
| 2026-05-07 19:26 | -34.00324 | 22.38401 | 650 ft | 19 kts | 266° |
| 2026-05-07 19:26 | -34.00332 | 22.38246 | 648 ft | 10 kts | 266° |
| 2026-05-07 19:27 | -34.00322 | 22.38206 | 648 ft | 5 kts | 299° |
| 2026-05-07 19:27 | -34.00311 | 22.38183 | 649 ft | 5 kts | 299° |
| 2026-05-07 19:27 | -34.00309 | 22.38177 | 648 ft | 6 kts | 299° |
| 2026-05-07 19:27 | -34.00283 | 22.38128 | 647 ft | 11 kts | 310° |
| 2026-05-07 19:28 | -34.00213 | 22.38061 | 647 ft | 13 kts | 322° |
| 2026-05-07 19:28 | -34.00200 | 22.38052 | 646 ft | 0 kts | 343° |
| 2026-05-07 19:28 | -34.00168 | 22.38031 | 648 ft | 11 kts | 338° |
| 2026-05-07 19:28 | -34.00151 | 22.38028 | 646 ft | 2 kts | 8° |
| 2026-05-07 19:29 | -34.00131 | 22.38048 | 646 ft | 4 kts | 67° |
| 2026-05-07 19:29 | -34.00125 | 22.38074 | 648 ft | 2 kts | 77° |